Time;durP1;ratioP1;P1;durP2;ratioP2;P2;SDS_P1;SDS_P2;PMS_P1;PMS_P2;Temp;Humidity;BMP_temperature;BMP_pressure;BME280_temperature;BME280_humidity;BME280_pressure;Samples;Min_cycle;Max_cycle;Signal;HPM_P1;HPM_P2
2023/10/19 00:06:17;;;;;;;41.70;31.70;;;;;;;0.73;91.85;98988.50;436064;1254;138937;-58
2023/10/19 00:16:28;;;;;;;39.20;30.70;;;;;;;0.71;91.60;98980.48;435538;1254;138920;-58
2023/10/19 00:26:35;;;;;;;36.20;27.10;;;;;;;0.77;92.41;98971.81;435317;1254;139292;-59
2023/10/19 00:36:41;;;;;;;42.10;31.50;;;;;;;0.87;92.37;98962.37;435348;1254;139389;-58
2023/10/19 00:46:52;;;;;;;40.30;31.50;;;;;;;0.80;91.73;98946.39;435776;1257;138818;-58
2023/10/19 00:57:04;;;;;;;45.70;31.20;;;;;;;0.70;91.49;98933.47;435536;1254;139018;-60
2023/10/19 01:07:15;;;;;;;33.00;25.80;;;;;;;0.60;91.57;98918.63;435649;1254;139678;-59
2023/10/19 01:17:22;;;;;;;29.20;22.90;;;;;;;0.74;92.69;98900.41;435625;1254;139090;-59
2023/10/19 01:27:28;;;;;;;30.40;25.00;;;;;;;0.77;92.55;98890.83;435395;1254;138805;-59
2023/10/19 01:37:37;;;;;;;;;;;;;;;0.77;92.67;98881.20;435241;1257;138736;-59
2023/10/19 01:47:44;;;;;;;28.20;20.60;;;;;;;0.84;93.12;98858.00;435883;1254;126686;-59
2023/10/19 01:57:50;;;;;;;31.30;22.00;;;;;;;0.96;93.43;98850.52;435386;1257;138672;-58
2023/10/19 02:07:56;;;;;;;28.70;20.10;;;;;;;1.06;93.28;98842.23;435683;1254;139360;-59
2023/10/19 02:18:03;;;;;;;31.50;21.40;;;;;;;1.15;93.18;98830.55;435196;1254;138661;-59
2023/10/19 02:28:09;;;;;;;27.60;22.10;;;;;;;1.21;93.28;98815.64;435279;1257;139051;-59
2023/10/19 02:38:15;;;;;;;30.50;21.10;;;;;;;1.28;93.16;98799.35;435204;1257;139541;-59
2023/10/19 02:48:20;;;;;;;27.10;19.70;;;;;;;1.30;93.06;98776.20;435187;1254;138826;-59
2023/10/19 02:58:28;;;;;;;26.70;19.10;;;;;;;1.26;92.69;98749.59;435314;1257;139186;-60
2023/10/19 03:08:35;;;;;;;26.60;18.30;;;;;;;1.27;92.87;98729.75;436080;1257;138713;-58
2023/10/19 03:18:41;;;;;;;24.60;17.50;;;;;;;1.27;92.89;98707.66;436122;1257;138916;-59
2023/10/19 03:28:47;;;;;;;21.90;17.10;;;;;;;1.33;93.04;98707.80;435611;1254;138788;-59
2023/10/19 03:38:54;;;;;;;25.60;18.10;;;;;;;1.35;93.00;98699.38;435159;1255;138905;-59
2023/10/19 03:49:04;;;;;;;22.30;16.60;;;;;;;1.40;92.90;98680.60;435385;1254;138883;-58
2023/10/19 03:59:12;;;;;;;24.80;17.80;;;;;;;1.41;92.72;98659.49;435274;1256;138710;-59
2023/10/19 04:09:18;;;;;;;21.40;17.00;;;;;;;1.40;92.53;98652.47;435150;1256;138900;-59
2023/10/19 04:19:24;;;;;;;28.00;19.00;;;;;;;1.35;92.49;98641.65;435302;1254;139833;-59
2023/10/19 04:29:31;;;;;;;23.10;16.90;;;;;;;1.32;92.49;98630.39;435269;1254;139399;-59
2023/10/19 04:39:37;;;;;;;26.50;17.30;;;;;;;1.30;92.70;98607.54;435432;1254;138661;-59
2023/10/19 04:49:43;;;;;;;24.30;17.90;;;;;;;1.34;93.07;98609.26;435627;1254;138784;-59
2023/10/19 04:59:50;;;;;;;20.10;17.00;;;;;;;1.38;93.10;98608.23;435345;1255;138848;-58
2023/10/19 05:09:59;;;;;;;27.80;16.00;;;;;;;1.38;92.97;98599.77;435380;1256;138753;-59
2023/10/19 05:20:07;;;;;;;21.10;16.20;;;;;;;1.40;93.22;98587.60;435427;1256;139613;-59
2023/10/19 05:30:15;;;;;;;21.80;17.90;;;;;;;1.49;93.18;98584.31;435410;1254;139177;-64
2023/10/19 05:40:23;;;;;;;17.20;14.30;;;;;;;1.66;93.21;98579.29;435470;1257;138805;-65
2023/10/19 05:50:29;;;;;;;17.80;13.50;;;;;;;1.94;93.25;98576.64;435305;1254;138669;-69
2023/10/19 06:00:36;;;;;;;15.10;12.40;;;;;;;2.42;93.10;98565.15;435878;1254;139068;-72
2023/10/19 06:10:42;;;;;;;17.50;13.70;;;;;;;3.10;92.50;98552.92;437135;1254;138960;-67
2023/10/19 06:21:08;;;;;;;17.60;14.10;;;;;;;3.89;90.88;98531.08;435816;1254;138627;-68
2023/10/19 06:31:19;;;;;;;17.70;13.10;;;;;;;4.25;88.47;98533.84;437691;1254;138904;-66
2023/10/19 06:41:25;;;;;;;20.10;13.50;;;;;;;4.45;87.16;98539.48;435951;1257;138702;-68
2023/10/19 06:51:44;;;;;;;20.80;14.50;;;;;;;4.74;86.27;98529.88;430016;1257;10279038;-65
2023/10/19 07:02:01;;;;;;;20.40;15.60;;;;;;;5.13;85.05;98509.30;435906;1254;139278;-67
2023/10/19 07:12:23;;;;;;;17.80;14.30;;;;;;;5.97;84.47;98491.58;437726;1254;138954;-75
2023/10/19 07:22:32;;;;;;;19.80;13.90;;;;;;;7.35;82.42;98476.95;435829;1257;138770;-69
2023/10/19 07:32:39;;;;;;;18.10;14.00;;;;;;;8.14;79.11;98463.58;436604;1254;138732;-70
2023/10/19 07:42:46;;;;;;;17.20;13.80;;;;;;;8.58;76.74;98462.05;435394;1257;140857;-66
2023/10/19 07:52:54;;;;;;;16.70;13.00;;;;;;;9.02;75.78;98455.66;435942;1257;138810;-65
2023/10/19 08:03:01;;;;;;;15.20;12.70;;;;;;;9.40;73.53;98439.71;437142;1254;138247;-66
2023/10/19 08:13:07;;;;;;;19.00;11.90;;;;;;;8.75;71.96;98423.29;436685;1254;138955;-71
2023/10/19 08:23:16;;;;;;;13.90;10.90;;;;;;;8.03;71.58;98399.21;437621;1257;138842;-67
2023/10/19 08:33:48;;;;;;;14.40;11.80;;;;;;;7.54;72.54;98378.15;436682;1254;138635;-67
2023/10/19 08:44:01;;;;;;;17.70;12.90;;;;;;;7.43;72.74;98357.27;436834;1254;138947;-62
2023/10/19 09:26:38;;;;;;;14.90;11.70;;;;;;;8.47;72.43;98286.50;425657;1273;956520;-63
2023/10/19 09:36:45;;;;;;;13.90;10.80;;;;;;;8.50;70.89;98264.85;431456;1269;139579;-60
2023/10/19 09:46:54;;;;;;;12.30;11.00;;;;;;;8.47;71.06;98268.92;430983;1270;139358;-61
2023/10/19 09:57:12;;;;;;;15.30;11.40;;;;;;;8.52;70.49;98281.61;430461;1270;139556;-60
2023/10/19 10:07:19;;;;;;;15.40;11.10;;;;;;;8.34;69.98;98286.80;431345;1270;139156;-67
2023/10/19 10:17:50;;;;;;;13.70;11.30;;;;;;;8.19;70.32;98268.21;430840;1270;139018;-66
2023/10/19 11:00:27;;;;;;;16.90;13.10;;;;;;;7.60;70.26;98178.27;381601;1267;958170;-63
2023/10/19 11:10:33;;;;;;;18.20;14.80;;;;;;;7.65;70.36;98161.16;431292;1270;138898;-63
2023/10/19 11:20:40;;;;;;;17.70;14.60;;;;;;;7.58;70.05;98162.38;431067;1270;141501;-61
2023/10/19 11:30:48;;;;;;;17.40;15.40;;;;;;;7.35;70.31;98162.84;431186;1270;139083;-64
2023/10/19 11:40:54;;;;;;;20.90;15.10;;;;;;;7.42;70.99;98161.48;431298;1270;138878;-65
2023/10/19 11:51:03;;;;;;;19.80;15.80;;;;;;;7.41;71.01;98162.57;431216;1270;139259;-61
2023/10/19 12:01:11;;;;;;;18.20;15.90;;;;;;;7.48;71.52;98159.70;431502;1270;139150;-67
2023/10/19 12:11:18;;;;;;;21.40;16.80;;;;;;;7.45;71.45;98155.86;431322;1270;138723;-69
2023/10/19 12:21:27;;;;;;;18.80;14.60;;;;;;;7.44;72.15;98148.43;431078;1270;139882;-64
2023/10/19 12:31:33;;;;;;;19.60;15.30;;;;;;;7.54;72.92;98152.61;431799;1272;138921;-66
2023/10/19 12:41:39;;;;;;;23.00;17.50;;;;;;;7.54;73.07;98140.08;430862;1270;139585;-63
2023/10/19 12:51:46;;;;;;;25.70;19.00;;;;;;;7.30;73.70;98130.49;431447;1270;139227;-63
2023/10/19 13:01:55;;;;;;;23.50;19.70;;;;;;;7.04;74.84;98110.30;431483;1269;139149;-64
2023/10/19 13:12:01;;;;;;;26.70;20.80;;;;;;;6.87;76.16;98085.77;431434;1270;139004;-65
2023/10/19 13:22:07;;;;;;;25.00;21.90;;;;;;;6.76;77.26;98060.52;430988;1270;138769;-64
2023/10/19 13:32:13;;;;;;;25.70;21.00;;;;;;;6.68;77.96;98054.74;431847;1273;139169;-64
2023/10/19 13:42:19;;;;;;;23.60;20.90;;;;;;;6.47;78.88;98039.44;430987;1269;141499;-65
2023/10/19 13:52:25;;;;;;;28.10;21.10;;;;;;;6.29;79.89;98013.39;430924;1273;141002;-65
2023/10/19 14:02:31;;;;;;;21.50;18.50;;;;;;;6.15;80.73;98017.03;431515;1269;140382;-64
2023/10/19 14:12:37;;;;;;;24.70;19.30;;;;;;;6.05;81.67;97981.05;430301;1272;140476;-64
2023/10/19 14:22:49;;;;;;;30.70;21.60;;;;;;;5.98;82.66;97960.64;430856;1273;140706;-64
2023/10/19 14:32:55;;;;;;;25.50;19.90;;;;;;;5.88;83.44;97957.52;431606;1267;139523;-62
2023/10/19 14:43:02;;;;;;;23.50;20.50;;;;;;;5.83;84.22;97979.27;430687;1273;140113;-64
2023/10/19 14:53:08;;;;;;;23.70;19.40;;;;;;;5.80;85.12;97983.14;430979;1273;140510;-63
2023/10/19 15:03:16;;;;;;;27.80;20.30;;;;;;;5.71;86.86;97983.00;431097;1270;138969;-64
2023/10/19 15:13:22;;;;;;;29.90;23.10;;;;;;;5.61;87.92;97971.20;431816;1270;139303;-64
2023/10/19 15:23:29;;;;;;;26.70;21.70;;;;;;;5.54;89.27;97956.26;430867;1273;140645;-65
2023/10/19 15:33:34;;;;;;;30.20;24.80;;;;;;;5.46;90.38;97952.10;430757;1272;138886;-65
2023/10/19 15:43:40;;;;;;;32.60;22.50;;;;;;;5.38;91.92;97955.60;430886;1270;139931;-65
2023/10/19 15:53:46;;;;;;;28.30;22.50;;;;;;;5.32;93.11;97960.52;430718;1273;140353;-65
2023/10/19 16:03:52;;;;;;;29.30;22.60;;;;;;;5.28;94.11;97956.61;430673;1273;140363;-64
2023/10/19 16:13:58;;;;;;;29.40;23.80;;;;;;;5.25;95.18;97949.36;430959;1273;140350;-65
2023/10/19 16:24:05;;;;;;;27.80;23.30;;;;;;;5.23;96.24;97949.17;431036;1273;140280;-66
2023/10/19 16:34:12;;;;;;;28.00;23.90;;;;;;;5.22;97.15;97943.48;431196;1270;138997;-64
2023/10/19 16:44:18;;;;;;;32.00;25.10;;;;;;;5.24;97.62;97932.96;431424;1273;139874;-65
2023/10/19 16:54:23;;;;;;;25.20;21.90;;;;;;;5.23;98.28;97920.89;431734;1270;139447;-65
2023/10/19 17:04:29;;;;;;;31.40;23.70;;;;;;;5.25;98.65;97906.73;431461;1273;138960;-64
2023/10/19 17:14:37;;;;;;;25.10;20.10;;;;;;;5.25;99.17;97895.08;431088;1273;138782;-61
2023/10/19 17:24:44;;;;;;;23.90;18.30;;;;;;;5.25;99.27;97887.11;431022;1270;138903;-63
2023/10/19 17:34:50;;;;;;;22.90;19.60;;;;;;;5.25;99.72;97880.52;433062;1270;139014;-61
2023/10/19 17:44:56;;;;;;;18.80;16.80;;;;;;;5.26;100.00;97873.70;430837;1269;138810;-62
2023/10/19 17:55:02;;;;;;;22.50;18.40;;;;;;;5.25;100.00;97871.64;431146;1270;139287;-62
2023/10/19 18:05:11;;;;;;;20.50;16.20;;;;;;;5.26;100.00;97871.92;431065;1273;139142;-61
2023/10/19 18:15:20;;;;;;;21.70;16.80;;;;;;;5.27;100.00;97859.91;430706;1272;138981;-61
2023/10/19 18:25:28;;;;;;;22.70;18.20;;;;;;;5.28;100.00;97849.27;430582;1270;139761;-61
2023/10/19 18:35:34;;;;;;;22.40;18.80;;;;;;;5.30;100.00;97834.36;430676;1273;139121;-61
2023/10/19 18:45:39;;;;;;;24.40;19.80;;;;;;;5.34;100.00;97832.33;430671;1272;139665;-60
2023/10/19 18:55:52;;;;;;;25.30;20.40;;;;;;;5.37;100.00;97833.51;430517;1270;178747;-60
2023/10/19 19:06:04;;;;;;;29.50;23.30;;;;;;;5.41;100.00;97826.80;430619;1270;139152;-61
2023/10/19 19:16:11;;;;;;;21.80;19.30;;;;;;;5.47;100.00;97826.58;430512;1271;139058;-61
2023/10/19 19:26:17;;;;;;;22.10;19.40;;;;;;;5.53;100.00;97816.56;430119;1270;140468;-62
2023/10/19 19:36:24;;;;;;;21.40;18.90;;;;;;;5.57;100.00;97802.91;430726;1270;139669;-59
2023/10/19 19:46:32;;;;;;;19.70;17.60;;;;;;;5.62;100.00;97792.34;432242;1266;139672;-59
2023/10/19 19:56:38;;;;;;;18.80;16.00;;;;;;;5.66;100.00;97776.26;431496;1272;138993;-60
2023/10/19 20:06:44;;;;;;;18.60;16.70;;;;;;;5.72;100.00;97761.77;431494;1272;139156;-59
2023/10/19 20:16:49;;;;;;;22.60;17.70;;;;;;;5.75;100.00;97752.48;431666;1270;138982;-61
2023/10/19 20:26:55;;;;;;;23.00;18.70;;;;;;;5.77;100.00;97733.25;431278;1273;139051;-64
2023/10/19 20:37:02;;;;;;;22.50;18.90;;;;;;;5.81;100.00;97718.45;432365;1271;139806;-60
2023/10/19 20:47:09;;;;;;;22.30;19.30;;;;;;;5.84;100.00;97705.14;431320;1273;139090;-60
2023/10/19 20:57:15;;;;;;;21.00;16.80;;;;;;;5.88;100.00;97689.40;430998;1271;140131;-61
2023/10/19 21:07:21;;;;;;;20.60;17.10;;;;;;;5.91;100.00;97682.05;430818;1272;139010;-61
2023/10/19 21:17:27;;;;;;;21.60;16.30;;;;;;;5.95;100.00;97679.48;430811;1269;139832;-63
2023/10/19 21:27:37;;;;;;;18.40;15.80;;;;;;;5.97;100.00;97664.79;430641;1272;140614;-62
2023/10/19 21:37:43;;;;;;;17.30;13.30;;;;;;;5.99;100.00;97644.65;430308;1270;139573;-62
2023/10/19 21:47:49;;;;;;;17.70;15.70;;;;;;;6.00;100.00;97629.65;430657;1273;139207;-63
2023/10/19 21:57:55;;;;;;;18.90;16.40;;;;;;;6.00;100.00;97619.02;430690;1270;139139;-61
2023/10/19 22:08:01;;;;;;;18.90;16.10;;;;;;;6.02;100.00;97628.64;430748;1270;140866;-63
2023/10/19 22:18:09;;;;;;;18.90;15.90;;;;;;;6.06;100.00;97643.98;442806;1268;139637;-62
2023/10/19 22:28:16;;;;;;;20.80;17.50;;;;;;;6.11;100.00;97649.48;430983;1271;139512;-62
2023/10/19 22:38:22;;;;;;;21.10;18.60;;;;;;;6.15;100.00;97638.36;430478;1273;139835;-62
2023/10/19 22:48:29;;;;;;;20.10;16.00;;;;;;;6.17;100.00;97639.13;431135;1273;139571;-61
2023/10/19 22:58:34;;;;;;;21.00;17.00;;;;;;;6.18;100.00;97633.91;431633;1273;139899;-66
2023/10/19 23:08:41;;;;;;;22.60;17.40;;;;;;;6.19;100.00;97640.60;430920;1271;139318;-66
2023/10/19 23:18:47;;;;;;;22.60;17.60;;;;;;;6.22;100.00;97641.22;431023;1271;141053;-67
2023/10/19 23:28:53;;;;;;;24.30;16.70;;;;;;;6.22;100.00;97646.56;431804;1271;139361;-67
2023/10/19 23:39:01;;;;;;;24.30;17.30;;;;;;;6.20;100.00;97655.41;431576;1270;140415;-66
2023/10/19 23:49:09;;;;;;;19.30;15.10;;;;;;;6.16;100.00;97646.55;430739;1272;140063;-65
2023/10/19 23:59:13;;;;;;;;;;;;;;;6.14;100.00;97639.84;431780;1271;139619;-65
